Time,TemperatureF,DewpointF,PressureIn,WindDirection,WindDirectionDegrees,WindSpeedMPH,WindSpeedGustMPH,Humidity,HourlyPrecipIn,Conditions,Clouds,dailyrainin,SoftwareType,DateUTC
2013-02-03 00:00:00,47.5,42.3,30.17,WNW,301,0.0,0.0,82,0.00,,---,0.00,VWS V14.00,2013-02-03 05:00:00,
2013-02-03 00:02:00,47.4,42.5,30.17,WNW,301,0.0,0.0,83,0.00,,---,0.00,VWS V14.00,2013-02-03 05:02:00,
2013-02-03 00:04:00,47.4,42.5,30.17,WNW,301,0.0,0.0,83,0.00,,---,0.00,VWS V14.00,2013-02-03 05:04:00,
2013-02-03 00:09:00,47.2,42.3,30.17,WNW,300,0.0,0.0,83,0.00,,---,0.00,VWS V14.00,2013-02-03 05:09:00,
2013-02-03 00:14:00,47.0,42.4,30.17,WNW,301,0.0,0.0,84,0.00,,---,0.00,VWS V14.00,2013-02-03 05:14:00,
2013-02-03 00:19:00,46.8,42.2,30.17,WNW,301,0.0,0.0,84,0.00,,---,0.00,VWS V14.00,2013-02-03 05:19:00,
2013-02-03 00:24:00,46.7,42.1,30.17,WNW,301,0.0,0.0,84,0.00,,---,0.00,VWS V14.00,2013-02-03 05:24:00,
2013-02-03 00:29:00,46.6,42.0,30.17,WNW,300,0.0,0.0,84,0.00,,---,0.00,VWS V14.00,2013-02-03 05:29:00,
2013-02-03 00:30:00,45.3,41.4,30.15,WNW,300,0.0,0.0,86,0.00,,---,0.00,VWS V14.00,2013-02-03 05:30:00,
2013-02-03 00:34:00,46.4,41.8,30.17,WNW,301,0.0,0.0,84,0.00,,---,0.00,VWS V14.00,2013-02-03 05:34:00,
2013-02-03 00:39:00,46.2,42.0,30.17,WNW,300,0.0,0.0,85,0.00,,---,0.00,VWS V14.00,2013-02-03 05:39:00,
2013-02-03 00:44:00,46.1,41.8,30.16,WNW,301,0.0,0.0,85,0.00,,---,0.00,VWS V14.00,2013-02-03 05:44:00,
2013-02-03 00:49:00,46.0,41.8,30.16,WNW,301,0.0,0.0,85,0.00,,---,0.00,VWS V14.00,2013-02-03 05:49:00,
2013-02-03 00:54:00,45.8,41.5,30.16,WNW,301,0.0,0.0,85,0.00,,---,0.00,VWS V14.00,2013-02-03 05:54:00,
2013-02-03 00:59:00,45.7,41.5,30.16,WNW,301,0.0,0.0,85,0.00,,---,0.00,VWS V14.00,2013-02-03 05:59:00,
2013-02-03 01:00:00,45.4,41.8,30.14,WNW,301,0.0,0.0,87,0.00,,---,0.00,VWS V14.00,2013-02-03 06:00:00,
2013-02-03 01:04:00,45.5,41.6,30.16,WNW,301,0.0,0.0,86,0.00,,---,0.00,VWS V14.00,2013-02-03 06:04:00,
2013-02-03 01:09:00,45.5,41.6,30.16,WNW,300,0.0,0.0,86,0.00,,---,0.00,VWS V14.00,2013-02-03 06:09:00,
2013-02-03 01:15:00,45.4,41.5,30.16,WNW,300,0.0,0.0,86,0.00,,---,0.00,VWS V14.00,2013-02-03 06:15:00,
2013-02-03 01:20:00,45.4,41.5,30.16,WNW,300,0.0,0.0,86,0.00,,---,0.00,VWS V14.00,2013-02-03 06:20:00,
2013-02-03 01:25:00,45.4,41.5,30.16,WNW,301,0.0,0.0,86,0.00,,---,0.00,VWS V14.00,2013-02-03 06:25:00,
2013-02-03 01:30:00,45.3,41.4,30.15,WNW,300,0.0,0.0,86,0.00,,---,0.00,VWS V14.00,2013-02-03 06:30:00,
2013-02-03 01:35:00,45.3,41.4,30.15,WNW,301,0.0,0.0,86,0.00,,---,0.00,VWS V14.00,2013-02-03 06:35:00,
2013-02-03 01:40:00,45.2,41.6,30.15,WNW,301,0.0,0.0,87,0.00,,---,0.00,VWS V14.00,2013-02-03 06:40:00,
2013-02-03 01:45:00,45.3,41.7,30.15,WNW,301,0.0,0.0,87,0.00,,---,0.00,VWS V14.00,2013-02-03 06:45:00,
2013-02-03 01:50:00,45.4,41.8,30.14,WNW,301,0.0,0.0,87,0.00,,---,0.00,VWS V14.00,2013-02-03 06:50:00,
2013-02-03 01:55:00,45.4,41.8,30.14,WNW,301,0.0,0.0,87,0.00,,---,0.00,VWS V14.00,2013-02-03 06:55:00,
2013-02-03 02:00:00,45.4,41.8,30.14,WNW,301,0.0,0.0,87,0.00,,---,0.00,VWS V14.00,2013-02-03 07:00:00,
2013-02-03 02:05:00,45.3,41.7,30.14,WNW,301,0.0,0.0,87,0.00,,---,0.00,VWS V14.00,2013-02-03 07:05:00,
2013-02-03 02:10:00,45.1,41.2,30.13,WNW,300,0.0,0.0,86,0.00,,---,0.00,VWS V14.00,2013-02-03 07:10:00,
2013-02-03 02:15:00,45.0,41.4,30.13,WNW,301,0.0,0.0,87,0.00,,---,0.00,VWS V14.00,2013-02-03 07:15:00,
2013-02-03 02:20:00,44.7,41.1,30.13,WNW,300,0.0,0.0,87,0.00,,---,0.00,VWS V14.00,2013-02-03 07:20:00,
2013-02-03 02:25:00,44.6,41.0,30.13,WNW,301,0.0,0.0,87,0.00,,---,0.00,VWS V14.00,2013-02-03 07:25:00,
2013-02-03 02:30:00,44.5,40.9,30.13,WNW,301,0.0,0.0,87,0.00,,---,0.00,VWS V14.00,2013-02-03 07:30:00,
2013-02-03 02:35:00,44.4,40.8,30.13,WNW,301,0.0,0.0,87,0.00,,---,0.00,VWS V14.00,2013-02-03 07:35:00,
2013-02-03 02:40:00,44.3,40.7,30.13,WNW,301,0.0,0.0,87,0.00,,---,0.00,VWS V14.00,2013-02-03 07:40:00,
2013-02-03 02:45:00,44.3,40.7,30.13,WNW,301,0.0,0.0,87,0.00,,---,0.00,VWS V14.00,2013-02-03 07:45:00,
2013-02-03 02:50:00,44.4,40.8,30.13,WNW,301,0.0,0.0,87,0.00,,---,0.00,VWS V14.00,2013-02-03 07:50:00,
2013-02-03 02:55:00,44.4,40.5,30.13,WNW,301,0.0,0.0,86,0.00,,---,0.00,VWS V14.00,2013-02-03 07:55:00,
2013-02-03 03:00:00,44.4,40.5,30.13,WNW,301,0.0,0.0,86,0.00,,---,0.00,VWS V14.00,2013-02-03 08:00:00,
2013-02-03 03:05:00,44.5,40.3,30.13,WNW,300,0.0,0.0,85,0.00,,---,0.00,VWS V14.00,2013-02-03 08:05:00,
2013-02-03 03:10:00,44.5,40.3,30.13,WNW,301,0.0,0.0,85,0.00,,---,0.00,VWS V14.00,2013-02-03 08:10:00,
2013-02-03 03:15:00,44.5,40.3,30.13,WNW,301,0.0,0.0,85,0.00,,---,0.00,VWS V14.00,2013-02-03 08:15:00,
2013-02-03 03:20:00,44.5,40.3,30.13,WNW,300,0.0,0.0,85,0.00,,---,0.00,VWS V14.00,2013-02-03 08:20:00,
2013-02-03 03:26:00,44.5,40.0,30.13,WNW,300,0.0,0.0,84,0.00,,---,0.00,VWS V14.00,2013-02-03 08:26:00,
2013-02-03 03:30:00,44.8,40.6,30.14,WNW,301,0.0,0.0,85,0.00,,---,0.00,VWS V14.00,2013-02-03 08:30:00,
2013-02-03 03:31:00,44.4,40.2,30.13,WNW,301,0.0,0.0,85,0.00,,---,0.00,VWS V14.00,2013-02-03 08:31:00,
2013-02-03 03:36:00,44.3,40.1,30.13,WNW,301,0.0,0.0,85,0.00,,---,0.00,VWS V14.00,2013-02-03 08:36:00,
2013-02-03 03:41:00,44.3,40.1,30.13,WNW,301,0.0,0.0,85,0.00,,---,0.00,VWS V14.00,2013-02-03 08:41:00,
2013-02-03 03:46:00,44.2,40.0,30.13,WNW,300,0.0,0.0,85,0.00,,---,0.00,VWS V14.00,2013-02-03 08:46:00,
2013-02-03 03:51:00,44.2,40.0,30.13,WNW,301,0.0,1.0,85,0.00,,---,0.00,VWS V14.00,2013-02-03 08:51:00,
2013-02-03 03:56:00,44.3,40.4,30.14,WNW,300,0.0,1.0,86,0.00,,---,0.00,VWS V14.00,2013-02-03 08:56:00,
2013-02-03 04:00:00,42.9,39.0,30.15,WNW,301,0.0,0.0,86,0.00,,---,0.00,VWS V14.00,2013-02-03 09:00:00,
2013-02-03 04:01:00,44.5,40.6,30.14,WNW,301,0.0,1.0,86,0.00,,---,0.00,VWS V14.00,2013-02-03 09:01:00,
2013-02-03 04:06:00,44.7,40.8,30.14,WNW,300,0.0,0.0,86,0.00,,---,0.00,VWS V14.00,2013-02-03 09:06:00,
2013-02-03 04:11:00,44.7,40.5,30.14,WNW,301,0.0,0.0,85,0.00,,---,0.00,VWS V14.00,2013-02-03 09:11:00,
2013-02-03 04:16:00,44.9,40.7,30.14,WNW,300,0.0,0.0,85,0.00,,---,0.00,VWS V14.00,2013-02-03 09:16:00,
2013-02-03 04:21:00,45.0,40.8,30.14,WNW,301,0.0,0.0,85,0.00,,---,0.00,VWS V14.00,2013-02-03 09:21:00,
2013-02-03 04:26:00,44.9,40.4,30.14,WNW,301,0.0,0.0,84,0.00,,---,0.00,VWS V14.00,2013-02-03 09:26:00,
2013-02-03 04:30:00,41.9,38.6,30.16,WNW,300,0.0,0.0,88,0.00,,---,0.00,VWS V14.00,2013-02-03 09:30:00,
2013-02-03 04:31:00,44.7,40.5,30.14,WNW,301,0.0,0.0,85,0.00,,---,0.00,VWS V14.00,2013-02-03 09:31:00,
2013-02-03 04:36:00,44.5,40.3,30.14,WNW,301,0.0,0.0,85,0.00,,---,0.00,VWS V14.00,2013-02-03 09:36:00,
2013-02-03 04:41:00,44.3,40.1,30.14,WNW,301,0.0,0.0,85,0.00,,---,0.00,VWS V14.00,2013-02-03 09:41:00,
2013-02-03 04:46:00,43.9,39.7,30.14,WNW,301,0.0,0.0,85,0.00,,---,0.00,VWS V14.00,2013-02-03 09:46:00,
2013-02-03 04:51:00,43.6,39.4,30.14,WNW,301,0.0,0.0,85,0.00,,---,0.00,VWS V14.00,2013-02-03 09:51:00,
2013-02-03 04:56:00,43.2,39.0,30.14,WNW,300,0.0,0.0,85,0.00,,---,0.00,VWS V14.00,2013-02-03 09:56:00,
2013-02-03 05:00:00,40.6,37.3,30.16,WNW,301,0.0,0.0,88,0.00,,---,0.00,VWS V14.00,2013-02-03 10:00:00,
2013-02-03 05:01:00,42.9,39.0,30.15,WNW,301,0.0,0.0,86,0.00,,---,0.00,VWS V14.00,2013-02-03 10:01:00,
2013-02-03 05:06:00,42.7,38.8,30.14,WNW,300,0.0,0.0,86,0.00,,---,0.00,VWS V14.00,2013-02-03 10:06:00,
2013-02-03 05:11:00,42.6,39.0,30.15,WNW,301,0.0,0.0,87,0.00,,---,0.00,VWS V14.00,2013-02-03 10:11:00,
2013-02-03 05:16:00,42.5,38.9,30.15,WNW,301,0.0,0.0,87,0.00,,---,0.00,VWS V14.00,2013-02-03 10:16:00,
2013-02-03 05:21:00,42.3,38.7,30.15,WNW,301,0.0,0.0,87,0.00,,---,0.00,VWS V14.00,2013-02-03 10:21:00,
2013-02-03 05:26:00,42.0,38.7,30.15,WNW,300,0.0,0.0,88,0.00,,---,0.00,VWS V14.00,2013-02-03 10:26:00,
2013-02-03 05:30:00,40.0,36.5,30.17,WNW,300,0.0,0.0,87,0.00,,---,0.00,VWS V14.00,2013-02-03 10:30:00,
2013-02-03 05:31:00,41.9,38.6,30.16,WNW,301,0.0,0.0,88,0.00,,---,0.00,VWS V14.00,2013-02-03 10:31:00,
2013-02-03 05:37:00,41.6,38.3,30.16,WNW,300,0.0,0.0,88,0.00,,---,0.00,VWS V14.00,2013-02-03 10:37:00,
2013-02-03 05:42:00,41.4,38.1,30.16,WNW,301,0.0,0.0,88,0.00,,---,0.00,VWS V14.00,2013-02-03 10:42:00,
2013-02-03 05:47:00,41.1,37.8,30.16,WNW,300,0.0,0.0,88,0.00,,---,0.00,VWS V14.00,2013-02-03 10:47:00,
2013-02-03 05:52:00,41.0,37.7,30.16,WNW,301,0.0,0.0,88,0.00,,---,0.00,VWS V14.00,2013-02-03 10:52:00,
2013-02-03 05:57:00,40.7,37.4,30.16,WNW,301,0.0,0.0,88,0.00,,---,0.00,VWS V14.00,2013-02-03 10:57:00,
2013-02-03 06:00:00,39.5,36.0,30.18,WNW,301,0.0,0.0,87,0.00,,---,0.00,VWS V14.00,2013-02-03 11:00:00,
2013-02-03 06:02:00,40.6,37.3,30.16,WNW,301,0.0,0.0,88,0.00,,---,0.00,VWS V14.00,2013-02-03 11:02:00,
2013-02-03 06:07:00,40.5,37.2,30.16,WNW,301,0.0,0.0,88,0.00,,---,0.00,VWS V14.00,2013-02-03 11:07:00,
2013-02-03 06:12:00,40.5,37.2,30.16,WNW,301,0.0,0.0,88,0.00,,---,0.00,VWS V14.00,2013-02-03 11:12:00,
2013-02-03 06:17:00,40.5,37.2,30.17,WNW,301,0.0,0.0,88,0.00,,---,0.00,VWS V14.00,2013-02-03 11:17:00,
2013-02-03 06:22:00,40.3,36.8,30.17,WNW,300,0.0,0.0,87,0.00,,---,0.00,VWS V14.00,2013-02-03 11:22:00,
2013-02-03 06:27:00,40.2,36.7,30.17,WNW,301,0.0,0.0,87,0.00,,---,0.00,VWS V14.00,2013-02-03 11:27:00,
2013-02-03 06:30:00,38.8,35.3,30.19,WNW,301,0.0,0.0,87,0.00,,---,0.00,VWS V14.00,2013-02-03 11:30:00,
2013-02-03 06:32:00,40.0,36.5,30.17,WNW,300,0.0,0.0,87,0.00,,---,0.00,VWS V14.00,2013-02-03 11:32:00,
2013-02-03 06:37:00,39.9,36.3,30.18,WNW,300,0.0,0.0,87,0.00,,---,0.00,VWS V14.00,2013-02-03 11:37:00,
2013-02-03 06:42:00,39.8,36.2,30.18,WNW,301,0.0,0.0,87,0.00,,---,0.00,VWS V14.00,2013-02-03 11:42:00,
2013-02-03 06:47:00,39.7,36.2,30.18,WNW,300,0.0,0.0,87,0.00,,---,0.00,VWS V14.00,2013-02-03 11:47:00,
2013-02-03 06:52:00,39.7,36.2,30.18,WNW,300,0.0,0.0,87,0.00,,---,0.00,VWS V14.00,2013-02-03 11:52:00,
2013-02-03 06:57:00,39.6,36.1,30.18,WNW,301,0.0,0.0,87,0.00,,---,0.00,VWS V14.00,2013-02-03 11:57:00,
2013-02-03 07:00:00,39.9,36.6,30.20,WNW,300,0.0,1.0,88,0.00,,---,0.00,VWS V14.00,2013-02-03 12:00:00,
2013-02-03 07:02:00,39.5,36.0,30.18,WNW,301,0.0,0.0,87,0.00,,---,0.00,VWS V14.00,2013-02-03 12:02:00,
2013-02-03 07:08:00,39.4,35.9,30.18,WNW,301,0.0,0.0,87,0.00,,---,0.00,VWS V14.00,2013-02-03 12:08:00,
2013-02-03 07:13:00,39.2,35.7,30.19,WNW,301,0.0,0.0,87,0.00,,---,0.00,VWS V14.00,2013-02-03 12:13:00,
2013-02-03 07:18:00,39.1,35.6,30.19,WNW,301,0.0,0.0,87,0.00,,---,0.00,VWS V14.00,2013-02-03 12:18:00,
2013-02-03 07:23:00,39.0,35.5,30.19,WNW,301,0.0,0.0,87,0.00,,---,0.00,VWS V14.00,2013-02-03 12:23:00,
2013-02-03 07:28:00,38.9,35.4,30.19,WNW,300,0.0,0.0,87,0.00,,---,0.00,VWS V14.00,2013-02-03 12:28:00,
2013-02-03 07:30:00,44.6,39.1,30.20,WNW,302,0.0,3.0,81,0.00,,---,0.00,VWS V14.00,2013-02-03 12:30:00,
2013-02-03 07:33:00,38.8,35.3,30.19,WNW,301,0.0,0.0,87,0.00,,---,0.00,VWS V14.00,2013-02-03 12:33:00,
2013-02-03 07:38:00,38.8,35.6,30.19,WNW,300,0.0,0.0,88,0.00,,---,0.00,VWS V14.00,2013-02-03 12:38:00,
2013-02-03 07:43:00,38.7,35.5,30.19,WNW,301,0.0,0.0,88,0.00,,---,0.00,VWS V14.00,2013-02-03 12:43:00,
2013-02-03 07:48:00,38.7,35.5,30.20,WNW,300,0.0,0.0,88,0.00,,---,0.00,VWS V14.00,2013-02-03 12:48:00,
2013-02-03 07:53:00,39.0,35.8,30.20,WNW,301,0.0,0.0,88,0.00,,---,0.00,VWS V14.00,2013-02-03 12:53:00,
2013-02-03 07:58:00,39.5,36.2,30.20,WNW,301,0.0,1.0,88,0.00,,---,0.00,VWS V14.00,2013-02-03 12:58:00,
2013-02-03 08:00:00,48.5,42.0,30.20,SW,215,0.0,2.0,78,0.00,,---,0.00,VWS V14.00,2013-02-03 13:00:00,
2013-02-03 08:03:00,40.1,36.5,30.20,WNW,301,0.0,0.0,87,0.00,,---,0.00,VWS V14.00,2013-02-03 13:03:00,
2013-02-03 08:08:00,40.7,37.1,30.20,WNW,301,0.0,1.0,87,0.00,,---,0.00,VWS V14.00,2013-02-03 13:08:00,
2013-02-03 08:13:00,41.6,37.7,30.21,WNW,302,2.0,3.0,86,0.00,,---,0.00,VWS V14.00,2013-02-03 13:13:00,
2013-02-03 08:18:00,42.6,38.4,30.21,WNW,302,0.0,3.0,85,0.00,,---,0.00,VWS V14.00,2013-02-03 13:18:00,
2013-02-03 08:23:00,43.4,38.6,30.20,WNW,302,0.0,3.0,83,0.00,,---,0.00,VWS V14.00,2013-02-03 13:23:00,
2013-02-03 08:28:00,44.1,39.0,30.20,WNW,302,0.0,3.0,82,0.00,,---,0.00,VWS V14.00,2013-02-03 13:28:00,
2013-02-03 08:30:00,53.3,42.6,30.20,South,174,0.0,7.0,67,0.00,,---,0.00,VWS V14.00,2013-02-03 13:30:00,
2013-02-03 08:33:00,45.0,39.2,30.20,WNW,302,0.0,0.0,80,0.00,,---,0.00,VWS V14.00,2013-02-03 13:33:00,
2013-02-03 08:38:00,45.5,39.7,30.20,WNW,302,0.0,0.0,80,0.00,,---,0.00,VWS V14.00,2013-02-03 13:38:00,
2013-02-03 08:44:00,46.1,40.3,30.20,WNW,302,0.0,1.0,80,0.00,,---,0.00,VWS V14.00,2013-02-03 13:44:00,
2013-02-03 08:49:00,47.0,40.8,30.20,WNW,302,0.0,1.0,79,0.00,,---,0.00,VWS V14.00,2013-02-03 13:49:00,
2013-02-03 08:54:00,47.6,41.1,30.20,WNW,302,0.0,1.0,78,0.00,,---,0.00,VWS V14.00,2013-02-03 13:54:00,
2013-02-03 08:59:00,48.3,41.8,30.20,WNW,302,0.0,1.0,78,0.00,,---,0.00,VWS V14.00,2013-02-03 13:59:00,
2013-02-03 09:00:00,58.0,45.1,30.19,NW,321,0.0,6.0,62,0.00,,---,0.00,VWS V14.00,2013-02-03 14:00:00,
2013-02-03 09:04:00,49.2,42.3,30.20,NW,313,0.0,3.0,77,0.00,,---,0.00,VWS V14.00,2013-02-03 14:04:00,
2013-02-03 09:09:00,50.0,42.7,30.20,NW,313,2.0,4.0,76,0.00,,---,0.00,VWS V14.00,2013-02-03 14:09:00,
2013-02-03 09:14:00,50.8,42.5,30.20,NW,313,0.0,4.0,73,0.00,,---,0.00,VWS V14.00,2013-02-03 14:14:00,
2013-02-03 09:19:00,51.5,43.1,30.20,WSW,240,0.0,4.0,73,0.00,,---,0.00,VWS V14.00,2013-02-03 14:19:00,
2013-02-03 09:24:00,52.2,42.7,30.20,WNW,293,0.0,7.0,70,0.00,,---,0.00,VWS V14.00,2013-02-03 14:24:00,
2013-02-03 09:29:00,53.0,42.3,30.20,NNW,331,0.0,7.0,67,0.00,,---,0.00,VWS V14.00,2013-02-03 14:29:00,
2013-02-03 09:30:00,61.1,45.8,30.18,SW,236,0.0,7.0,57,0.00,,---,0.00,VWS V14.00,2013-02-03 14:30:00,
2013-02-03 09:34:00,53.8,43.1,30.19,WNW,293,0.0,4.0,67,0.00,,---,0.00,VWS V14.00,2013-02-03 14:34:00,
2013-02-03 09:39:00,54.6,43.5,30.19,West,271,0.0,4.0,66,0.00,,---,0.00,VWS V14.00,2013-02-03 14:39:00,
2013-02-03 09:44:00,55.5,43.5,30.19,SE,128,0.0,4.0,64,0.00,,---,0.00,VWS V14.00,2013-02-03 14:44:00,
2013-02-03 09:49:00,56.3,44.3,30.19,NNW,329,0.0,4.0,64,0.00,,---,0.00,VWS V14.00,2013-02-03 14:49:00,
2013-02-03 09:54:00,57.2,44.7,30.19,North,355,0.0,6.0,63,0.00,,---,0.00,VWS V14.00,2013-02-03 14:54:00,
2013-02-03 10:00:00,57.9,45.4,30.19,NNW,334,0.0,6.0,63,0.00,,---,0.00,VWS V14.00,2013-02-03 15:00:00,
2013-02-03 10:05:00,58.6,45.6,30.19,NW,321,0.0,1.0,62,0.00,,---,0.00,VWS V14.00,2013-02-03 15:05:00,
2013-02-03 10:10:00,59.3,45.4,30.19,NW,323,0.0,3.0,60,0.00,,---,0.00,VWS V14.00,2013-02-03 15:10:00,
2013-02-03 10:15:00,59.9,45.5,30.19,NW,311,2.0,7.0,59,0.00,,---,0.00,VWS V14.00,2013-02-03 15:15:00,
2013-02-03 10:20:00,60.2,45.4,30.19,NNW,332,0.0,7.0,58,0.00,,---,0.00,VWS V14.00,2013-02-03 15:20:00,
2013-02-03 10:25:00,60.5,45.7,30.18,West,274,0.0,7.0,58,0.00,,---,0.00,VWS V14.00,2013-02-03 15:25:00,
2013-02-03 10:30:00,61.0,45.7,30.18,North,360,0.0,7.0,57,0.00,,---,0.00,VWS V14.00,2013-02-03 15:30:00,
2013-02-03 10:35:00,61.6,46.2,30.18,NW,316,0.0,6.0,57,0.00,,---,0.00,VWS V14.00,2013-02-03 15:35:00,
2013-02-03 10:40:00,62.0,46.6,30.18,NW,310,2.0,6.0,57,0.00,,---,0.00,VWS V14.00,2013-02-03 15:40:00,
2013-02-03 10:45:00,62.5,47.5,30.18,North,350,0.0,6.0,58,0.00,,---,0.00,VWS V14.00,2013-02-03 15:45:00,
2013-02-03 10:50:00,63.1,48.1,30.18,NW,321,0.0,8.0,58,0.00,,---,0.00,VWS V14.00,2013-02-03 15:50:00,
2013-02-03 10:55:00,63.5,48.5,30.18,NW,317,0.0,8.0,58,0.00,,---,0.00,VWS V14.00,2013-02-03 15:55:00,
2013-02-03 11:00:00,63.9,48.4,30.18,NW,313,3.0,8.0,57,0.00,,---,0.00,VWS V14.00,2013-02-03 16:00:00,
2013-02-03 11:05:00,64.3,49.2,30.18,WNW,284,0.0,2.0,58,0.00,,---,0.00,VWS V14.00,2013-02-03 16:05:00,
2013-02-03 11:10:00,64.7,49.6,30.17,WNW,288,1.0,4.0,58,0.00,,---,0.00,VWS V14.00,2013-02-03 16:10:00,
2013-02-03 11:15:00,64.8,49.2,30.17,NW,306,3.0,7.0,57,0.00,,---,0.00,VWS V14.00,2013-02-03 16:15:00,
2013-02-03 11:20:00,64.8,50.2,30.17,NNW,346,0.0,7.0,59,0.00,,---,0.00,VWS V14.00,2013-02-03 16:20:00,
2013-02-03 11:25:00,65.2,50.1,30.17,NNW,328,0.0,7.0,58,0.00,,---,0.00,VWS V14.00,2013-02-03 16:25:00,
2013-02-03 11:30:00,65.5,50.3,30.18,WNW,299,4.0,7.0,58,0.00,,---,0.00,VWS V14.00,2013-02-03 16:30:00,
2013-02-03 11:35:00,65.6,50.4,30.17,WNW,302,0.0,5.0,58,0.00,,---,0.00,VWS V14.00,2013-02-03 16:35:00,
2013-02-03 11:41:00,65.9,50.2,30.17,NNW,329,1.0,5.0,57,0.00,,---,0.00,VWS V14.00,2013-02-03 16:41:00,
2013-02-03 11:46:00,65.8,50.2,30.17,NNW,340,2.0,11.0,57,0.00,,---,0.00,VWS V14.00,2013-02-03 16:46:00,
2013-02-03 11:51:00,65.9,50.2,30.16,NNW,340,0.0,11.0,57,0.00,,---,0.00,VWS V14.00,2013-02-03 16:51:00,
2013-02-03 11:56:00,65.7,50.5,30.16,NNW,331,0.0,11.0,58,0.00,,---,0.00,VWS V14.00,2013-02-03 16:56:00,
2013-02-03 12:00:00,67.6,51.4,30.13,SW,214,7.0,11.0,56,0.00,,---,0.00,VWS V14.00,2013-02-03 17:00:00,
2013-02-03 12:01:00,65.8,50.6,30.16,WSW,254,0.0,11.0,58,0.00,,---,0.00,VWS V14.00,2013-02-03 17:01:00,
2013-02-03 12:06:00,65.9,50.2,30.16,NW,325,2.0,12.0,57,0.00,,---,0.00,VWS V14.00,2013-02-03 17:06:00,
2013-02-03 12:11:00,65.6,50.4,30.16,North,349,1.0,12.0,58,0.00,,---,0.00,VWS V14.00,2013-02-03 17:11:00,
2013-02-03 12:16:00,66.0,51.3,30.15,North,5,5.0,12.0,59,0.00,,---,0.00,VWS V14.00,2013-02-03 17:16:00,
2013-02-03 12:21:00,66.5,50.8,30.15,NNW,333,1.0,12.0,57,0.00,,---,0.00,VWS V14.00,2013-02-03 17:21:00,
2013-02-03 12:26:00,66.6,50.4,30.15,NNW,328,0.0,12.0,56,0.00,,---,0.00,VWS V14.00,2013-02-03 17:26:00,
2013-02-03 12:30:00,69.4,52.0,30.10,SW,223,3.0,7.0,54,0.00,,---,0.00,VWS V14.00,2013-02-03 17:30:00,
2013-02-03 12:31:00,66.7,50.5,30.15,NE,36,0.0,12.0,56,0.00,,---,0.00,VWS V14.00,2013-02-03 17:31:00,
2013-02-03 12:36:00,67.0,50.8,30.14,West,266,0.0,5.0,56,0.00,,---,0.00,VWS V14.00,2013-02-03 17:36:00,
2013-02-03 12:41:00,67.6,51.4,30.14,SW,216,6.0,10.0,56,0.00,,---,0.00,VWS V14.00,2013-02-03 17:41:00,
2013-02-03 12:46:00,67.8,51.1,30.14,South,176,0.0,10.0,55,0.00,,---,0.00,VWS V14.00,2013-02-03 17:46:00,
2013-02-03 12:51:00,68.0,50.8,30.13,North,9,0.0,11.0,54,0.00,,---,0.00,VWS V14.00,2013-02-03 17:51:00,
2013-02-03 12:56:00,67.7,51.0,30.13,NW,312,4.0,11.0,55,0.00,,---,0.00,VWS V14.00,2013-02-03 17:56:00,
2013-02-03 13:00:00,70.1,50.1,30.09,WNW,287,4.0,16.0,49,0.00,,---,0.00,VWS V14.00,2013-02-03 18:00:00,
2013-02-03 13:01:00,67.6,51.4,30.13,SW,233,0.0,7.0,56,0.00,,---,0.00,VWS V14.00,2013-02-03 18:01:00,
2013-02-03 13:06:00,67.9,51.2,30.12,West,271,0.0,7.0,55,0.00,,---,0.00,VWS V14.00,2013-02-03 18:06:00,
2013-02-03 13:11:00,68.2,51.4,30.11,NNW,346,0.0,7.0,55,0.00,,---,0.00,VWS V14.00,2013-02-03 18:11:00,
2013-02-03 13:16:00,68.4,51.6,30.11,NNW,339,0.0,7.0,55,0.00,,---,0.00,VWS V14.00,2013-02-03 18:16:00,
2013-02-03 13:21:00,68.8,52.0,30.11,WSW,248,5.0,7.0,55,0.00,,---,0.00,VWS V14.00,2013-02-03 18:21:00,
2013-02-03 13:26:00,68.8,51.5,30.10,WSW,250,0.0,7.0,54,0.00,,---,0.00,VWS V14.00,2013-02-03 18:26:00,
2013-02-03 13:30:00,70.5,47.0,30.08,SW,233,0.0,17.0,43,0.00,,---,0.00,VWS V14.00,2013-02-03 18:30:00,
2013-02-03 13:31:00,69.4,51.5,30.10,SSW,198,3.0,10.0,53,0.00,,---,0.00,VWS V14.00,2013-02-03 18:31:00,
2013-02-03 13:37:00,69.4,51.5,30.10,West,263,0.0,10.0,53,0.00,,---,0.00,VWS V14.00,2013-02-03 18:37:00,
2013-02-03 13:42:00,69.3,50.9,30.10,NNW,334,7.0,16.0,52,0.00,,---,0.00,VWS V14.00,2013-02-03 18:42:00,
2013-02-03 13:47:00,69.1,50.2,30.10,WSW,252,6.0,16.0,51,0.00,,---,0.00,VWS V14.00,2013-02-03 18:47:00,
2013-02-03 13:52:00,69.1,50.2,30.09,WNW,301,0.0,16.0,51,0.00,,---,0.00,VWS V14.00,2013-02-03 18:52:00,
2013-02-03 13:57:00,69.6,49.6,30.09,WSW,250,0.0,16.0,49,0.00,,---,0.00,VWS V14.00,2013-02-03 18:57:00,
2013-02-03 14:00:00,70.3,46.8,30.08,WSW,239,1.0,14.0,43,0.00,,---,0.00,VWS V14.00,2013-02-03 19:00:00,
2013-02-03 14:02:00,70.2,50.2,30.09,NNW,342,4.0,11.0,49,0.00,,---,0.00,VWS V14.00,2013-02-03 19:02:00,
2013-02-03 14:07:00,70.1,49.5,30.09,NW,315,0.0,11.0,48,0.00,,---,0.00,VWS V14.00,2013-02-03 19:07:00,
2013-02-03 14:12:00,70.8,49.6,30.09,West,266,3.0,11.0,47,0.00,,---,0.00,VWS V14.00,2013-02-03 19:12:00,
2013-02-03 14:17:00,70.7,48.3,30.08,NW,313,0.0,11.0,45,0.00,,---,0.00,VWS V14.00,2013-02-03 19:17:00,
2013-02-03 14:22:00,70.4,49.2,30.08,SSW,209,0.0,11.0,47,0.00,,---,0.00,VWS V14.00,2013-02-03 19:22:00,
2013-02-03 14:27:00,70.4,48.1,30.08,WSW,244,4.0,17.0,45,0.00,,---,0.00,VWS V14.00,2013-02-03 19:27:00,
2013-02-03 14:30:00,70.8,47.2,30.07,WSW,249,2.0,12.0,43,0.00,,---,0.00,VWS V14.00,2013-02-03 19:30:00,
2013-02-03 14:32:00,70.5,47.6,30.08,SSE,157,0.0,3.0,44,0.00,,---,0.00,VWS V14.00,2013-02-03 19:32:00,
2013-02-03 14:37:00,70.8,47.2,30.08,WSW,238,8.0,13.0,43,0.00,,---,0.00,VWS V14.00,2013-02-03 19:37:00,
2013-02-03 14:42:00,70.2,46.7,30.08,NW,321,1.0,14.0,43,0.00,,---,0.00,VWS V14.00,2013-02-03 19:42:00,
2013-02-03 14:47:00,70.1,46.6,30.08,NW,322,0.0,14.0,43,0.00,,---,0.00,VWS V14.00,2013-02-03 19:47:00,
2013-02-03 14:52:00,70.2,47.3,30.08,SSW,200,6.0,14.0,44,0.00,,---,0.00,VWS V14.00,2013-02-03 19:52:00,
2013-02-03 14:57:00,69.9,45.8,30.08,WSW,252,2.0,14.0,42,0.00,,---,0.00,VWS V14.00,2013-02-03 19:57:00,
2013-02-03 15:00:00,70.4,46.2,30.06,WNW,294,0.0,11.0,42,0.00,,---,0.00,VWS V14.00,2013-02-03 20:00:00,
2013-02-03 15:02:00,70.4,46.2,30.08,SSW,206,4.0,12.0,42,0.00,,---,0.00,VWS V14.00,2013-02-03 20:02:00,
2013-02-03 15:07:00,70.0,45.9,30.08,WSW,241,0.0,12.0,42,0.00,,---,0.00,VWS V14.00,2013-02-03 20:07:00,
2013-02-03 15:12:00,70.3,46.2,30.08,SSW,206,0.0,12.0,42,0.00,,---,0.00,VWS V14.00,2013-02-03 20:12:00,
2013-02-03 15:17:00,70.6,47.0,30.07,SW,222,5.0,12.0,43,0.00,,---,0.00,VWS V14.00,2013-02-03 20:17:00,
2013-02-03 15:23:00,70.7,47.1,30.07,WSW,240,0.0,12.0,43,0.00,,---,0.00,VWS V14.00,2013-02-03 20:23:00,
2013-02-03 15:28:00,70.8,47.8,30.07,SW,232,4.0,12.0,44,0.00,,---,0.00,VWS V14.00,2013-02-03 20:28:00,
2013-02-03 15:30:00,69.8,43.8,30.06,SSW,205,1.0,11.0,39,0.00,,---,0.00,VWS V14.00,2013-02-03 20:30:00,
2013-02-03 15:33:00,70.7,47.7,30.07,WSW,252,0.0,3.0,44,0.00,,---,0.00,VWS V14.00,2013-02-03 20:33:00,
2013-02-03 15:38:00,70.6,47.0,30.07,SW,229,4.0,11.0,43,0.00,,---,0.00,VWS V14.00,2013-02-03 20:38:00,
2013-02-03 15:43:00,70.0,46.5,30.06,SSW,207,0.0,11.0,43,0.00,,---,0.00,VWS V14.00,2013-02-03 20:43:00,
2013-02-03 15:48:00,69.6,46.1,30.06,SW,222,0.0,11.0,43,0.00,,---,0.00,VWS V14.00,2013-02-03 20:48:00,
2013-02-03 15:53:00,69.9,46.4,30.06,SW,225,0.0,11.0,43,0.00,,---,0.00,VWS V14.00,2013-02-03 20:53:00,
2013-02-03 15:58:00,70.3,46.2,30.06,WNW,285,0.0,11.0,42,0.00,,---,0.00,VWS V14.00,2013-02-03 20:58:00,
2013-02-03 16:00:00,69.6,42.9,30.06,WNW,288,3.0,11.0,38,0.00,,---,0.00,VWS V14.00,2013-02-03 21:00:00,
2013-02-03 16:03:00,70.5,45.7,30.06,SW,223,4.0,6.0,41,0.00,,---,0.00,VWS V14.00,2013-02-03 21:03:00,
2013-02-03 16:08:00,70.3,46.2,30.06,South,183,1.0,9.0,42,0.00,,---,0.00,VWS V14.00,2013-02-03 21:08:00,
2013-02-03 16:13:00,70.3,46.2,30.06,SW,219,0.0,9.0,42,0.00,,---,0.00,VWS V14.00,2013-02-03 21:13:00,
2013-02-03 16:18:00,70.3,44.9,30.06,WSW,242,0.0,11.0,40,0.00,,---,0.00,VWS V14.00,2013-02-03 21:18:00,
2013-02-03 16:23:00,70.2,44.1,30.06,WSW,248,0.0,11.0,39,0.00,,---,0.00,VWS V14.00,2013-02-03 21:23:00,
2013-02-03 16:28:00,69.8,43.8,30.06,WSW,243,0.0,11.0,39,0.00,,---,0.00,VWS V14.00,2013-02-03 21:28:00,
2013-02-03 16:30:00,68.0,42.8,30.06,SW,234,0.0,6.0,40,0.00,,---,0.00,VWS V14.00,2013-02-03 21:30:00,
2013-02-03 16:33:00,69.8,43.8,30.06,SW,236,4.0,6.0,39,0.00,,---,0.00,VWS V14.00,2013-02-03 21:33:00,
2013-02-03 16:38:00,70.0,43.9,30.06,NW,312,0.0,7.0,39,0.00,,---,0.00,VWS V14.00,2013-02-03 21:38:00,
2013-02-03 16:43:00,69.9,43.2,30.06,NNE,14,0.0,9.0,38,0.00,,---,0.00,VWS V14.00,2013-02-03 21:43:00,
2013-02-03 16:49:00,69.9,43.2,30.06,SSW,205,3.0,11.0,38,0.00,,---,0.00,VWS V14.00,2013-02-03 21:49:00,
2013-02-03 16:54:00,69.7,43.0,30.06,WSW,256,0.0,11.0,38,0.00,,---,0.00,VWS V14.00,2013-02-03 21:54:00,
2013-02-03 16:59:00,69.6,42.9,30.06,SW,217,1.0,11.0,38,0.00,,---,0.00,VWS V14.00,2013-02-03 21:59:00,
2013-02-03 17:00:00,66.0,44.1,30.06,SW,229,0.0,2.0,45,0.00,,---,0.00,VWS V14.00,2013-02-03 22:00:00,
2013-02-03 17:04:00,69.5,42.8,30.06,SW,214,0.0,6.0,38,0.00,,---,0.00,VWS V14.00,2013-02-03 22:04:00,
2013-02-03 17:09:00,69.4,43.4,30.06,NW,305,0.0,6.0,39,0.00,,---,0.00,VWS V14.00,2013-02-03 22:09:00,
2013-02-03 17:14:00,69.2,43.2,30.06,South,187,0.0,6.0,39,0.00,,---,0.00,VWS V14.00,2013-02-03 22:14:00,
2013-02-03 17:19:00,68.8,42.9,30.06,SSW,211,0.0,6.0,39,0.00,,---,0.00,VWS V14.00,2013-02-03 22:19:00,
2013-02-03 17:24:00,68.3,43.1,30.06,West,267,0.0,6.0,40,0.00,,---,0.00,VWS V14.00,2013-02-03 22:24:00,
2013-02-03 17:29:00,68.1,42.9,30.06,WSW,239,0.0,6.0,40,0.00,,---,0.00,VWS V14.00,2013-02-03 22:29:00,
2013-02-03 17:30:00,63.4,42.8,30.07,SW,228,0.0,1.0,47,0.00,,---,0.00,VWS V14.00,2013-02-03 22:30:00,
2013-02-03 17:34:00,67.9,42.7,30.06,SW,229,0.0,1.0,40,0.00,,---,0.00,VWS V14.00,2013-02-03 22:34:00,
2013-02-03 17:39:00,67.6,43.1,30.06,WSW,251,0.0,1.0,41,0.00,,---,0.00,VWS V14.00,2013-02-03 22:39:00,
2013-02-03 17:44:00,67.3,43.5,30.06,SW,229,0.0,1.0,42,0.00,,---,0.00,VWS V14.00,2013-02-03 22:44:00,
2013-02-03 17:49:00,67.0,44.4,30.06,WSW,245,0.0,1.0,44,0.00,,---,0.00,VWS V14.00,2013-02-03 22:49:00,
2013-02-03 17:54:00,66.5,44.5,30.06,SW,215,0.0,2.0,45,0.00,,---,0.00,VWS V14.00,2013-02-03 22:54:00,
2013-02-03 17:59:00,66.1,44.2,30.06,WSW,248,0.0,2.0,45,0.00,,---,0.00,VWS V14.00,2013-02-03 22:59:00,
2013-02-03 18:00:00,61.4,42.1,30.08,SW,215,0.0,3.0,49,0.00,,---,0.00,VWS V14.00,2013-02-03 23:00:00,
2013-02-03 18:04:00,65.7,43.8,30.06,SW,229,0.0,0.0,45,0.00,,---,0.00,VWS V14.00,2013-02-03 23:04:00,
2013-02-03 18:09:00,65.3,44.0,30.06,SW,229,0.0,1.0,46,0.00,,---,0.00,VWS V14.00,2013-02-03 23:09:00,
2013-02-03 18:14:00,64.8,44.1,30.07,SW,215,0.0,1.0,47,0.00,,---,0.00,VWS V14.00,2013-02-03 23:14:00,
2013-02-03 18:19:00,64.4,43.8,30.07,SW,215,0.0,1.0,47,0.00,,---,0.00,VWS V14.00,2013-02-03 23:19:00,
2013-02-03 18:25:00,63.9,43.3,30.07,SW,228,0.0,1.0,47,0.00,,---,0.00,VWS V14.00,2013-02-03 23:25:00,
2013-02-03 18:30:00,63.5,43.5,30.07,SW,226,0.0,1.0,48,0.00,,---,0.00,VWS V14.00,2013-02-03 23:30:00,
2013-02-03 18:35:00,63.1,42.6,30.07,SW,223,0.0,3.0,47,0.00,,---,0.00,VWS V14.00,2013-02-03 23:35:00,
2013-02-03 18:40:00,62.8,42.8,30.07,SW,223,0.0,3.0,48,0.00,,---,0.00,VWS V14.00,2013-02-03 23:40:00,
2013-02-03 18:45:00,62.5,42.6,30.08,SW,223,0.0,3.0,48,0.00,,---,0.00,VWS V14.00,2013-02-03 23:45:00,
2013-02-03 18:50:00,62.1,42.2,30.08,SW,223,0.0,3.0,48,0.00,,---,0.00,VWS V14.00,2013-02-03 23:50:00,
2013-02-03 18:55:00,61.8,42.5,30.08,SW,223,0.0,3.0,49,0.00,,---,0.00,VWS V14.00,2013-02-03 23:55:00,
2013-02-03 19:00:00,61.5,42.2,30.08,SW,215,0.0,3.0,49,0.00,,---,0.00,VWS V14.00,2013-02-04 00:00:00,
2013-02-03 19:05:00,61.2,41.9,30.08,WSW,246,0.0,2.0,49,0.00,,---,0.00,VWS V14.00,2013-02-04 00:05:00,
2013-02-03 19:10:00,61.1,41.8,30.08,WSW,248,0.0,7.0,49,0.00,,---,0.00,VWS V14.00,2013-02-04 00:10:00,
2013-02-03 19:15:00,61.1,41.3,30.08,SW,223,0.0,7.0,48,0.00,,---,0.00,VWS V14.00,2013-02-04 00:15:00,
2013-02-03 19:20:00,60.9,41.1,30.08,SW,223,0.0,7.0,48,0.00,,---,0.00,VWS V14.00,2013-02-04 00:20:00,
2013-02-03 19:25:00,60.7,40.9,30.08,SW,224,0.0,7.0,48,0.00,,---,0.00,VWS V14.00,2013-02-04 00:25:00,
2013-02-03 19:30:00,60.4,40.6,30.09,WSW,253,0.0,7.0,48,0.00,,---,0.00,VWS V14.00,2013-02-04 00:30:00,
2013-02-03 19:35:00,60.3,40.5,30.08,SW,228,0.0,1.0,48,0.00,,---,0.00,VWS V14.00,2013-02-04 00:35:00,
2013-02-03 19:40:00,60.0,40.3,30.09,SW,227,0.0,1.0,48,0.00,,---,0.00,VWS V14.00,2013-02-04 00:40:00,
2013-02-03 19:45:00,59.8,40.1,30.09,WSW,241,0.0,1.0,48,0.00,,---,0.00,VWS V14.00,2013-02-04 00:45:00,
2013-02-03 19:51:00,59.5,39.3,30.09,SW,229,0.0,4.0,47,0.00,,---,0.00,VWS V14.00,2013-02-04 00:51:00,
2013-02-03 19:56:00,59.3,39.6,30.09,SW,229,0.0,4.0,48,0.00,,---,0.00,VWS V14.00,2013-02-04 00:56:00,
2013-02-03 20:00:00,56.7,39.8,30.11,WSW,244,0.0,4.0,53,0.00,,---,0.00,VWS V14.00,2013-02-04 01:00:00,
2013-02-03 20:01:00,59.0,39.4,30.09,SW,229,0.0,4.0,48,0.00,,---,0.00,VWS V14.00,2013-02-04 01:01:00,
2013-02-03 20:06:00,58.9,39.8,30.09,SW,229,0.0,0.0,49,0.00,,---,0.00,VWS V14.00,2013-02-04 01:06:00,
2013-02-03 20:11:00,58.6,39.5,30.10,SW,227,0.0,3.0,49,0.00,,---,0.00,VWS V14.00,2013-02-04 01:11:00,
2013-02-03 20:16:00,58.4,39.3,30.10,SW,228,0.0,3.0,49,0.00,,---,0.00,VWS V14.00,2013-02-04 01:16:00,
2013-02-03 20:21:00,58.1,39.6,30.10,SW,228,0.0,3.0,50,0.00,,---,0.00,VWS V14.00,2013-02-04 01:21:00,
2013-02-03 20:26:00,57.8,39.3,30.11,WSW,251,0.0,3.0,50,0.00,,---,0.00,VWS V14.00,2013-02-04 01:26:00,
2013-02-03 20:30:00,55.1,38.8,30.12,West,262,0.0,0.0,54,0.00,,---,0.00,VWS V14.00,2013-02-04 01:30:00,
2013-02-03 20:31:00,57.6,39.1,30.11,WSW,250,0.0,3.0,50,0.00,,---,0.00,VWS V14.00,2013-02-04 01:31:00,
2013-02-03 20:36:00,57.3,39.3,30.11,West,280,0.0,1.0,51,0.00,,---,0.00,VWS V14.00,2013-02-04 01:36:00,
2013-02-03 20:41:00,57.2,39.2,30.11,West,272,0.0,1.0,51,0.00,,---,0.00,VWS V14.00,2013-02-04 01:41:00,
2013-02-03 20:46:00,57.1,39.2,30.11,SW,230,0.0,1.0,51,0.00,,---,0.00,VWS V14.00,2013-02-04 01:46:00,
2013-02-03 20:51:00,57.0,39.1,30.11,WSW,240,0.0,4.0,51,0.00,,---,0.00,VWS V14.00,2013-02-04 01:51:00,
2013-02-03 20:56:00,56.8,39.4,30.11,WSW,240,0.0,4.0,52,0.00,,---,0.00,VWS V14.00,2013-02-04 01:56:00,
2013-02-03 21:00:00,53.9,39.9,30.12,NNW,338,0.0,3.0,59,0.00,,---,0.00,VWS V14.00,2013-02-04 02:00:00,
2013-02-03 21:01:00,56.6,39.7,30.11,WSW,244,0.0,0.0,53,0.00,,---,0.00,VWS V14.00,2013-02-04 02:01:00,
2013-02-03 21:06:00,56.5,39.6,30.11,WSW,244,0.0,0.0,53,0.00,,---,0.00,VWS V14.00,2013-02-04 02:06:00,
2013-02-03 21:11:00,56.2,39.8,30.11,WSW,244,0.0,0.0,54,0.00,,---,0.00,VWS V14.00,2013-02-04 02:11:00,
2013-02-03 21:16:00,55.9,40.0,30.12,WSW,244,0.0,0.0,55,0.00,,---,0.00,VWS V14.00,2013-02-04 02:16:00,
2013-02-03 21:21:00,55.5,39.6,30.12,NW,326,0.0,0.0,55,0.00,,---,0.00,VWS V14.00,2013-02-04 02:21:00,
2013-02-03 21:26:00,55.2,38.9,30.12,NW,326,0.0,0.0,54,0.00,,---,0.00,VWS V14.00,2013-02-04 02:26:00,
2013-02-03 21:30:00,52.4,41.0,30.12,NW,307,0.0,2.0,65,0.00,,---,0.00,VWS V14.00,2013-02-04 02:30:00,
2013-02-03 21:31:00,55.0,38.7,30.12,West,261,0.0,0.0,54,0.00,,---,0.00,VWS V14.00,2013-02-04 02:31:00,
2013-02-03 21:37:00,54.8,39.0,30.12,SW,234,0.0,1.0,55,0.00,,---,0.00,VWS V14.00,2013-02-04 02:37:00,
2013-02-03 21:42:00,54.7,38.9,30.12,WSW,238,0.0,1.0,55,0.00,,---,0.00,VWS V14.00,2013-02-04 02:42:00,
2013-02-03 21:47:00,54.5,39.6,30.12,WSW,240,0.0,1.0,57,0.00,,---,0.00,VWS V14.00,2013-02-04 02:47:00,
2013-02-03 21:52:00,54.3,39.4,30.12,West,279,0.0,1.0,57,0.00,,---,0.00,VWS V14.00,2013-02-04 02:52:00,
2013-02-03 21:57:00,54.1,40.1,30.12,SW,215,0.0,3.0,59,0.00,,---,0.00,VWS V14.00,2013-02-04 02:57:00,
2013-02-03 22:00:00,51.4,41.2,30.13,NW,307,0.0,1.0,68,0.00,,---,0.00,VWS V14.00,2013-02-04 03:00:00,
2013-02-03 22:02:00,53.9,40.3,30.12,NNW,338,0.0,0.0,60,0.00,,---,0.00,VWS V14.00,2013-02-04 03:02:00,
2013-02-03 22:07:00,53.6,40.5,30.12,NW,307,0.0,1.0,61,0.00,,---,0.00,VWS V14.00,2013-02-04 03:07:00,
2013-02-03 22:12:00,53.3,40.6,30.12,NW,307,0.0,1.0,62,0.00,,---,0.00,VWS V14.00,2013-02-04 03:12:00,
2013-02-03 22:17:00,53.1,40.8,30.12,NW,307,0.0,1.0,63,0.00,,---,0.00,VWS V14.00,2013-02-04 03:17:00,
2013-02-03 22:22:00,52.8,40.6,30.12,NW,307,0.0,1.0,63,0.00,,---,0.00,VWS V14.00,2013-02-04 03:22:00,
2013-02-03 22:27:00,52.5,40.7,30.12,NW,307,0.0,1.0,64,0.00,,---,0.00,VWS V14.00,2013-02-04 03:27:00,
2013-02-03 22:30:00,50.5,41.5,30.12,NW,304,0.0,0.0,71,0.00,,---,0.00,VWS V14.00,2013-02-04 03:30:00,
2013-02-03 22:32:00,52.3,40.9,30.12,NW,307,0.0,0.0,65,0.00,,---,0.00,VWS V14.00,2013-02-04 03:32:00,
2013-02-03 22:37:00,52.2,40.8,30.12,NW,307,0.0,0.0,65,0.00,,---,0.00,VWS V14.00,2013-02-04 03:37:00,
2013-02-03 22:42:00,51.9,40.9,30.12,NW,307,0.0,0.0,66,0.00,,---,0.00,VWS V14.00,2013-02-04 03:42:00,
2013-02-03 22:47:00,51.8,41.2,30.12,NW,307,0.0,0.0,67,0.00,,---,0.00,VWS V14.00,2013-02-04 03:47:00,
2013-02-03 22:52:00,51.6,41.0,30.13,NW,307,0.0,0.0,67,0.00,,---,0.00,VWS V14.00,2013-02-04 03:52:00,
2013-02-03 22:57:00,51.5,41.3,30.13,NW,307,0.0,1.0,68,0.00,,---,0.00,VWS V14.00,2013-02-04 03:57:00,
2013-02-03 23:00:00,49.5,41.2,30.12,NW,304,0.0,0.0,73,0.00,,---,0.00,VWS V14.00,2013-02-04 04:00:00,
2013-02-03 23:02:00,51.4,41.2,30.13,NW,307,0.0,0.0,68,0.00,,---,0.00,VWS V14.00,2013-02-04 04:02:00,
2013-02-03 23:07:00,51.3,41.5,30.13,NW,307,0.0,0.0,69,0.00,,---,0.00,VWS V14.00,2013-02-04 04:07:00,
2013-02-03 23:12:00,51.2,41.4,30.13,NW,305,0.0,0.0,69,0.00,,---,0.00,VWS V14.00,2013-02-04 04:12:00,
2013-02-03 23:17:00,51.1,42.4,30.12,NW,304,0.0,0.0,72,0.00,,---,0.00,VWS V14.00,2013-02-04 04:17:00,
2013-02-03 23:22:00,50.9,41.5,30.12,NW,305,0.0,0.0,70,0.00,,---,0.00,VWS V14.00,2013-02-04 04:22:00,
2013-02-03 23:27:00,50.6,41.2,30.12,NW,304,0.0,0.0,70,0.00,,---,0.00,VWS V14.00,2013-02-04 04:27:00,
2013-02-03 23:30:00,47.8,40.6,30.11,NW,304,0.0,0.0,76,0.00,,---,0.00,VWS V14.00,2013-02-04 04:30:00,
2013-02-03 23:33:00,50.5,41.5,30.12,NW,305,0.0,0.0,71,0.00,,---,0.00,VWS V14.00,2013-02-04 04:33:00,
2013-02-03 23:38:00,50.3,41.3,30.12,NW,304,0.0,0.0,71,0.00,,---,0.00,VWS V14.00,2013-02-04 04:38:00,
2013-02-03 23:43:00,50.1,41.4,30.12,NW,304,0.0,0.0,72,0.00,,---,0.00,VWS V14.00,2013-02-04 04:43:00,
2013-02-03 23:48:00,50.0,41.3,30.12,NW,304,0.0,0.0,72,0.00,,---,0.00,VWS V14.00,2013-02-04 04:48:00,
2013-02-03 23:53:00,49.9,41.6,30.12,NW,304,0.0,0.0,73,0.00,,---,0.00,VWS V14.00,2013-02-04 04:53:00,
2013-02-03 23:58:00,49.6,41.3,30.12,NW,304,0.0,0.0,73,0.00,,---,0.00,VWS V14.00,2013-02-04 04:58:00,